National Weather Service Raw Text Product

Displaying AFOS PIL: TAFDSM Received: 2018-03-08 23:39 UTC


801 
FTUS43 KDMX 082339
TAFDSM
TAF
KDSM 082339Z 0900/0924 VRB03KT P6SM FEW250
     FM090800 10005KT P6SM BKN110
     FM091500 11008KT P6SM VCSH BKN045
     FM092200 09007KT P6SM BKN150=